sensor_id;sensor_type;location;lat;lon;timestamp;P1;durP1;ratioP1;P2;durP2;ratioP2
9898;SDS011;4988;49.238;6.698;2023-04-25T00:01:30;13.33;;;8.43;;
9898;SDS011;4988;49.238;6.698;2023-04-25T00:03:57;17.87;;;9.13;;
9898;SDS011;4988;49.238;6.698;2023-04-25T00:06:22;13.63;;;8.37;;
9898;SDS011;4988;49.238;6.698;2023-04-25T00:08:51;13.47;;;8.77;;
9898;SDS011;4988;49.238;6.698;2023-04-25T00:11:17;13.63;;;8.27;;
9898;SDS011;4988;49.238;6.698;2023-04-25T00:13:42;12.87;;;8.40;;
9898;SDS011;4988;49.238;6.698;2023-04-25T00:16:07;14.13;;;8.37;;
9898;SDS011;4988;49.238;6.698;2023-04-25T00:18:33;13.10;;;7.80;;
9898;SDS011;4988;49.238;6.698;2023-04-25T00:20:58;19.53;;;8.83;;
9898;SDS011;4988;49.238;6.698;2023-04-25T00:23:24;15.27;;;8.50;;
9898;SDS011;4988;49.238;6.698;2023-04-25T00:25:49;14.17;;;8.63;;
9898;SDS011;4988;49.238;6.698;2023-04-25T00:28:15;12.57;;;7.80;;
9898;SDS011;4988;49.238;6.698;2023-04-25T00:30:40;14.30;;;8.10;;
9898;SDS011;4988;49.238;6.698;2023-04-25T00:33:07;13.20;;;7.97;;
9898;SDS011;4988;49.238;6.698;2023-04-25T00:35:33;12.87;;;8.27;;
9898;SDS011;4988;49.238;6.698;2023-04-25T00:37:58;13.83;;;8.50;;
9898;SDS011;4988;49.238;6.698;2023-04-25T00:40:24;14.57;;;8.70;;
9898;SDS011;4988;49.238;6.698;2023-04-25T00:42:49;12.47;;;8.13;;
9898;SDS011;4988;49.238;6.698;2023-04-25T00:45:16;11.57;;;7.83;;
9898;SDS011;4988;49.238;6.698;2023-04-25T00:47:42;13.17;;;8.37;;
9898;SDS011;4988;49.238;6.698;2023-04-25T00:50:08;15.40;;;8.30;;
9898;SDS011;4988;49.238;6.698;2023-04-25T00:52:34;16.50;;;9.60;;
9898;SDS011;4988;49.238;6.698;2023-04-25T00:55:00;22.97;;;11.97;;
9898;SDS011;4988;49.238;6.698;2023-04-25T00:57:26;21.07;;;11.23;;
9898;SDS011;4988;49.238;6.698;2023-04-25T00:59:51;20.07;;;10.23;;
9898;SDS011;4988;49.238;6.698;2023-04-25T01:02:18;20.10;;;10.93;;
9898;SDS011;4988;49.238;6.698;2023-04-25T01:04:45;18.80;;;10.77;;
9898;SDS011;4988;49.238;6.698;2023-04-25T01:07:11;20.07;;;10.30;;
9898;SDS011;4988;49.238;6.698;2023-04-25T01:09:36;14.93;;;9.00;;
9898;SDS011;4988;49.238;6.698;2023-04-25T01:12:01;13.87;;;8.60;;
9898;SDS011;4988;49.238;6.698;2023-04-25T01:14:27;19.80;;;9.97;;
9898;SDS011;4988;49.238;6.698;2023-04-25T01:16:54;12.97;;;8.93;;
9898;SDS011;4988;49.238;6.698;2023-04-25T01:19:19;14.20;;;9.23;;
9898;SDS011;4988;49.238;6.698;2023-04-25T01:21:45;14.47;;;8.73;;
9898;SDS011;4988;49.238;6.698;2023-04-25T01:24:10;11.93;;;8.03;;
9898;SDS011;4988;49.238;6.698;2023-04-25T01:26:36;11.80;;;7.60;;
9898;SDS011;4988;49.238;6.698;2023-04-25T01:29:03;9.77;;;7.23;;
9898;SDS011;4988;49.238;6.698;2023-04-25T01:31:29;12.43;;;7.63;;
9898;SDS011;4988;49.238;6.698;2023-04-25T01:33:55;10.97;;;7.40;;
9898;SDS011;4988;49.238;6.698;2023-04-25T01:36:21;10.30;;;7.13;;
9898;SDS011;4988;49.238;6.698;2023-04-25T01:38:47;12.13;;;7.77;;
9898;SDS011;4988;49.238;6.698;2023-04-25T01:41:13;11.80;;;7.37;;
9898;SDS011;4988;49.238;6.698;2023-04-25T01:43:39;9.93;;;6.70;;
9898;SDS011;4988;49.238;6.698;2023-04-25T01:46:05;10.83;;;7.50;;
9898;SDS011;4988;49.238;6.698;2023-04-25T01:48:31;11.87;;;8.07;;
9898;SDS011;4988;49.238;6.698;2023-04-25T01:50:56;10.03;;;7.43;;
9898;SDS011;4988;49.238;6.698;2023-04-25T01:53:22;11.37;;;7.20;;
9898;SDS011;4988;49.238;6.698;2023-04-25T01:55:47;13.87;;;7.37;;
9898;SDS011;4988;49.238;6.698;2023-04-25T01:58:13;11.63;;;7.20;;
9898;SDS011;4988;49.238;6.698;2023-04-25T02:00:38;12.73;;;8.13;;
9898;SDS011;4988;49.238;6.698;2023-04-25T02:03:05;12.67;;;7.80;;
9898;SDS011;4988;49.238;6.698;2023-04-25T02:05:35;10.73;;;7.73;;
9898;SDS011;4988;49.238;6.698;2023-04-25T02:08:04;11.43;;;7.67;;
9898;SDS011;4988;49.238;6.698;2023-04-25T02:10:31;11.27;;;7.17;;
9898;SDS011;4988;49.238;6.698;2023-04-25T02:12:57;13.90;;;7.90;;
9898;SDS011;4988;49.238;6.698;2023-04-25T02:15:23;11.20;;;7.40;;
9898;SDS011;4988;49.238;6.698;2023-04-25T02:17:49;11.40;;;7.90;;
9898;SDS011;4988;49.238;6.698;2023-04-25T02:20:14;10.07;;;7.17;;
9898;SDS011;4988;49.238;6.698;2023-04-25T02:22:41;10.97;;;7.73;;
9898;SDS011;4988;49.238;6.698;2023-04-25T02:25:07;9.37;;;6.63;;
9898;SDS011;4988;49.238;6.698;2023-04-25T02:27:34;12.10;;;7.70;;
9898;SDS011;4988;49.238;6.698;2023-04-25T02:29:59;16.03;;;9.37;;
9898;SDS011;4988;49.238;6.698;2023-04-25T02:32:25;14.10;;;9.00;;
9898;SDS011;4988;49.238;6.698;2023-04-25T02:34:50;13.10;;;8.43;;
9898;SDS011;4988;49.238;6.698;2023-04-25T02:37:15;14.00;;;8.23;;
9898;SDS011;4988;49.238;6.698;2023-04-25T02:39:41;11.97;;;8.17;;
9898;SDS011;4988;49.238;6.698;2023-04-25T02:42:06;12.20;;;7.97;;
9898;SDS011;4988;49.238;6.698;2023-04-25T02:44:31;12.63;;;7.80;;
9898;SDS011;4988;49.238;6.698;2023-04-25T02:46:57;12.80;;;7.43;;
9898;SDS011;4988;49.238;6.698;2023-04-25T02:49:22;11.83;;;7.60;;
9898;SDS011;4988;49.238;6.698;2023-04-25T02:51:47;9.87;;;7.20;;
9898;SDS011;4988;49.238;6.698;2023-04-25T02:54:12;10.23;;;7.00;;
9898;SDS011;4988;49.238;6.698;2023-04-25T02:56:38;11.80;;;7.80;;
9898;SDS011;4988;49.238;6.698;2023-04-25T02:59:03;12.87;;;7.70;;
9898;SDS011;4988;49.238;6.698;2023-04-25T03:01:28;11.37;;;6.97;;
9898;SDS011;4988;49.238;6.698;2023-04-25T03:03:54;11.23;;;7.80;;
9898;SDS011;4988;49.238;6.698;2023-04-25T03:06:19;10.90;;;7.30;;
9898;SDS011;4988;49.238;6.698;2023-04-25T03:08:44;13.30;;;8.00;;
9898;SDS011;4988;49.238;6.698;2023-04-25T03:11:10;13.50;;;7.67;;
9898;SDS011;4988;49.238;6.698;2023-04-25T03:13:35;12.77;;;7.20;;
9898;SDS011;4988;49.238;6.698;2023-04-25T03:16:00;11.40;;;7.37;;
9898;SDS011;4988;49.238;6.698;2023-04-25T03:18:26;14.27;;;7.80;;
9898;SDS011;4988;49.238;6.698;2023-04-25T03:20:51;13.30;;;7.70;;
9898;SDS011;4988;49.238;6.698;2023-04-25T03:23:17;12.50;;;7.80;;
9898;SDS011;4988;49.238;6.698;2023-04-25T03:25:42;13.33;;;8.10;;
9898;SDS011;4988;49.238;6.698;2023-04-25T03:28:07;13.63;;;8.00;;
9898;SDS011;4988;49.238;6.698;2023-04-25T03:30:33;13.50;;;8.83;;
9898;SDS011;4988;49.238;6.698;2023-04-25T03:32:58;11.10;;;7.47;;
9898;SDS011;4988;49.238;6.698;2023-04-25T03:35:24;15.80;;;9.57;;
9898;SDS011;4988;49.238;6.698;2023-04-25T03:37:49;17.40;;;10.13;;
9898;SDS011;4988;49.238;6.698;2023-04-25T03:40:15;16.00;;;9.37;;
9898;SDS011;4988;49.238;6.698;2023-04-25T03:42:40;13.50;;;8.50;;
9898;SDS011;4988;49.238;6.698;2023-04-25T03:45:06;15.30;;;7.83;;
9898;SDS011;4988;49.238;6.698;2023-04-25T03:47:32;11.57;;;8.00;;
9898;SDS011;4988;49.238;6.698;2023-04-25T03:49:57;14.37;;;7.73;;
9898;SDS011;4988;49.238;6.698;2023-04-25T03:52:22;13.53;;;7.70;;
9898;SDS011;4988;49.238;6.698;2023-04-25T03:54:48;11.47;;;7.60;;
9898;SDS011;4988;49.238;6.698;2023-04-25T03:57:13;12.10;;;7.67;;
9898;SDS011;4988;49.238;6.698;2023-04-25T03:59:39;11.90;;;8.07;;
9898;SDS011;4988;49.238;6.698;2023-04-25T04:02:04;11.60;;;7.40;;
9898;SDS011;4988;49.238;6.698;2023-04-25T04:04:31;12.00;;;7.53;;
9898;SDS011;4988;49.238;6.698;2023-04-25T04:06:56;10.20;;;7.63;;
9898;SDS011;4988;49.238;6.698;2023-04-25T04:09:21;12.83;;;7.03;;
9898;SDS011;4988;49.238;6.698;2023-04-25T04:11:47;12.03;;;7.83;;
9898;SDS011;4988;49.238;6.698;2023-04-25T04:14:12;12.10;;;7.93;;
9898;SDS011;4988;49.238;6.698;2023-04-25T04:16:37;14.30;;;8.77;;
9898;SDS011;4988;49.238;6.698;2023-04-25T04:19:03;16.33;;;10.30;;
9898;SDS011;4988;49.238;6.698;2023-04-25T04:21:28;15.43;;;9.77;;
9898;SDS011;4988;49.238;6.698;2023-04-25T04:23:53;14.53;;;8.90;;
9898;SDS011;4988;49.238;6.698;2023-04-25T04:26:22;15.33;;;9.30;;
9898;SDS011;4988;49.238;6.698;2023-04-25T04:28:48;12.00;;;8.10;;
9898;SDS011;4988;49.238;6.698;2023-04-25T04:31:19;14.73;;;8.63;;
9898;SDS011;4988;49.238;6.698;2023-04-25T04:33:47;13.70;;;8.57;;
9898;SDS011;4988;49.238;6.698;2023-04-25T04:36:12;16.57;;;9.30;;
9898;SDS011;4988;49.238;6.698;2023-04-25T04:38:38;14.73;;;8.90;;
9898;SDS011;4988;49.238;6.698;2023-04-25T04:41:05;14.97;;;7.97;;
9898;SDS011;4988;49.238;6.698;2023-04-25T04:43:30;17.10;;;9.43;;
9898;SDS011;4988;49.238;6.698;2023-04-25T04:45:58;14.60;;;9.40;;
9898;SDS011;4988;49.238;6.698;2023-04-25T04:48:25;17.20;;;10.27;;
9898;SDS011;4988;49.238;6.698;2023-04-25T04:50:51;12.73;;;8.60;;
9898;SDS011;4988;49.238;6.698;2023-04-25T04:53:16;15.33;;;9.33;;
9898;SDS011;4988;49.238;6.698;2023-04-25T04:55:41;17.97;;;10.23;;
9898;SDS011;4988;49.238;6.698;2023-04-25T04:58:07;17.27;;;9.87;;
9898;SDS011;4988;49.238;6.698;2023-04-25T05:00:33;18.03;;;10.80;;
9898;SDS011;4988;49.238;6.698;2023-04-25T05:02:59;16.73;;;9.83;;
9898;SDS011;4988;49.238;6.698;2023-04-25T05:05:25;18.27;;;10.03;;
9898;SDS011;4988;49.238;6.698;2023-04-25T05:07:50;17.50;;;10.03;;
9898;SDS011;4988;49.238;6.698;2023-04-25T05:10:16;18.63;;;10.40;;
9898;SDS011;4988;49.238;6.698;2023-04-25T05:12:43;18.27;;;11.20;;
9898;SDS011;4988;49.238;6.698;2023-04-25T05:15:08;19.23;;;10.57;;
9898;SDS011;4988;49.238;6.698;2023-04-25T05:17:34;21.90;;;11.17;;
9898;SDS011;4988;49.238;6.698;2023-04-25T05:20:00;20.23;;;11.23;;
9898;SDS011;4988;49.238;6.698;2023-04-25T05:22:25;22.80;;;12.07;;
9898;SDS011;4988;49.238;6.698;2023-04-25T05:24:51;24.33;;;12.20;;
9898;SDS011;4988;49.238;6.698;2023-04-25T05:27:17;25.60;;;11.90;;
9898;SDS011;4988;49.238;6.698;2023-04-25T05:29:43;23.60;;;12.40;;
9898;SDS011;4988;49.238;6.698;2023-04-25T05:32:08;27.10;;;12.70;;
9898;SDS011;4988;49.238;6.698;2023-04-25T05:34:34;23.33;;;11.97;;
9898;SDS011;4988;49.238;6.698;2023-04-25T05:36:59;22.63;;;12.60;;
9898;SDS011;4988;49.238;6.698;2023-04-25T05:39:25;23.40;;;12.57;;
9898;SDS011;4988;49.238;6.698;2023-04-25T05:41:51;21.40;;;12.03;;
9898;SDS011;4988;49.238;6.698;2023-04-25T05:44:16;20.67;;;11.47;;
9898;SDS011;4988;49.238;6.698;2023-04-25T05:46:42;23.90;;;12.47;;
9898;SDS011;4988;49.238;6.698;2023-04-25T05:49:07;22.00;;;12.13;;
9898;SDS011;4988;49.238;6.698;2023-04-25T05:51:32;21.97;;;11.97;;
9898;SDS011;4988;49.238;6.698;2023-04-25T05:53:58;23.27;;;11.67;;
9898;SDS011;4988;49.238;6.698;2023-04-25T05:56:23;23.27;;;11.83;;
9898;SDS011;4988;49.238;6.698;2023-04-25T05:58:48;22.27;;;11.67;;
9898;SDS011;4988;49.238;6.698;2023-04-25T06:01:14;23.47;;;11.47;;
9898;SDS011;4988;49.238;6.698;2023-04-25T06:03:39;21.70;;;10.67;;
9898;SDS011;4988;49.238;6.698;2023-04-25T06:06:07;22.03;;;11.10;;
9898;SDS011;4988;49.238;6.698;2023-04-25T06:08:33;26.20;;;12.70;;
9898;SDS011;4988;49.238;6.698;2023-04-25T06:10:58;29.43;;;14.70;;
9898;SDS011;4988;49.238;6.698;2023-04-25T06:13:24;22.00;;;12.70;;
9898;SDS011;4988;49.238;6.698;2023-04-25T06:15:49;19.67;;;11.80;;
9898;SDS011;4988;49.238;6.698;2023-04-25T06:18:14;21.77;;;11.50;;
9898;SDS011;4988;49.238;6.698;2023-04-25T06:20:40;19.27;;;11.00;;
9898;SDS011;4988;49.238;6.698;2023-04-25T06:23:05;23.33;;;10.43;;
9898;SDS011;4988;49.238;6.698;2023-04-25T06:25:30;19.30;;;10.73;;
9898;SDS011;4988;49.238;6.698;2023-04-25T06:27:56;19.53;;;10.20;;
9898;SDS011;4988;49.238;6.698;2023-04-25T06:30:21;22.83;;;11.50;;
9898;SDS011;4988;49.238;6.698;2023-04-25T06:32:51;21.17;;;10.53;;
9898;SDS011;4988;49.238;6.698;2023-04-25T06:35:16;19.40;;;11.17;;
9898;SDS011;4988;49.238;6.698;2023-04-25T06:37:42;20.67;;;11.03;;
9898;SDS011;4988;49.238;6.698;2023-04-25T06:40:07;20.43;;;11.40;;
9898;SDS011;4988;49.238;6.698;2023-04-25T06:42:33;18.63;;;11.10;;
9898;SDS011;4988;49.238;6.698;2023-04-25T06:44:58;17.43;;;10.03;;
9898;SDS011;4988;49.238;6.698;2023-04-25T06:47:24;17.10;;;9.53;;
9898;SDS011;4988;49.238;6.698;2023-04-25T06:49:49;17.87;;;9.83;;
9898;SDS011;4988;49.238;6.698;2023-04-25T06:52:15;18.77;;;10.50;;
9898;SDS011;4988;49.238;6.698;2023-04-25T06:54:40;18.27;;;10.43;;
9898;SDS011;4988;49.238;6.698;2023-04-25T06:57:05;20.93;;;11.20;;
9898;SDS011;4988;49.238;6.698;2023-04-25T06:59:31;19.57;;;10.50;;
9898;SDS011;4988;49.238;6.698;2023-04-25T07:01:57;17.33;;;9.87;;
9898;SDS011;4988;49.238;6.698;2023-04-25T07:04:23;19.17;;;10.53;;
9898;SDS011;4988;49.238;6.698;2023-04-25T07:06:48;22.77;;;11.17;;
9898;SDS011;4988;49.238;6.698;2023-04-25T07:09:14;19.83;;;11.23;;
9898;SDS011;4988;49.238;6.698;2023-04-25T07:11:39;20.63;;;10.60;;
9898;SDS011;4988;49.238;6.698;2023-04-25T07:14:05;20.40;;;11.50;;
9898;SDS011;4988;49.238;6.698;2023-04-25T07:16:30;19.27;;;10.90;;
9898;SDS011;4988;49.238;6.698;2023-04-25T07:18:55;24.53;;;11.50;;
9898;SDS011;4988;49.238;6.698;2023-04-25T07:21:21;21.00;;;11.63;;
9898;SDS011;4988;49.238;6.698;2023-04-25T07:23:46;22.37;;;10.47;;
9898;SDS011;4988;49.238;6.698;2023-04-25T07:26:11;19.93;;;10.47;;
9898;SDS011;4988;49.238;6.698;2023-04-25T07:28:37;13.90;;;8.97;;
9898;SDS011;4988;49.238;6.698;2023-04-25T07:31:02;14.50;;;8.40;;
9898;SDS011;4988;49.238;6.698;2023-04-25T07:33:28;15.47;;;8.73;;
9898;SDS011;4988;49.238;6.698;2023-04-25T07:35:53;17.77;;;8.53;;
9898;SDS011;4988;49.238;6.698;2023-04-25T07:38:19;13.87;;;8.57;;
9898;SDS011;4988;49.238;6.698;2023-04-25T07:40:45;13.70;;;8.77;;
9898;SDS011;4988;49.238;6.698;2023-04-25T07:43:10;15.40;;;7.70;;
9898;SDS011;4988;49.238;6.698;2023-04-25T07:45:39;18.50;;;8.23;;
9898;SDS011;4988;49.238;6.698;2023-04-25T07:48:04;16.13;;;8.60;;
9898;SDS011;4988;49.238;6.698;2023-04-25T07:50:30;15.10;;;8.90;;
9898;SDS011;4988;49.238;6.698;2023-04-25T07:52:56;12.90;;;7.87;;
9898;SDS011;4988;49.238;6.698;2023-04-25T07:55:21;12.07;;;7.63;;
9898;SDS011;4988;49.238;6.698;2023-04-25T07:57:46;12.43;;;7.70;;
9898;SDS011;4988;49.238;6.698;2023-04-25T08:00:12;12.23;;;8.17;;
9898;SDS011;4988;49.238;6.698;2023-04-25T08:02:38;12.37;;;7.47;;
9898;SDS011;4988;49.238;6.698;2023-04-25T08:05:03;16.50;;;8.30;;
9898;SDS011;4988;49.238;6.698;2023-04-25T08:07:29;15.20;;;7.63;;
9898;SDS011;4988;49.238;6.698;2023-04-25T08:09:54;13.03;;;8.50;;
9898;SDS011;4988;49.238;6.698;2023-04-25T08:12:20;15.40;;;8.97;;
9898;SDS011;4988;49.238;6.698;2023-04-25T08:14:45;13.07;;;8.10;;
9898;SDS011;4988;49.238;6.698;2023-04-25T08:17:10;11.57;;;7.70;;
9898;SDS011;4988;49.238;6.698;2023-04-25T08:19:36;13.10;;;8.37;;
9898;SDS011;4988;49.238;6.698;2023-04-25T08:22:01;12.83;;;8.43;;
9898;SDS011;4988;49.238;6.698;2023-04-25T08:24:26;14.13;;;8.37;;
9898;SDS011;4988;49.238;6.698;2023-04-25T08:26:52;11.27;;;7.70;;
9898;SDS011;4988;49.238;6.698;2023-04-25T08:29:17;11.97;;;7.80;;
9898;SDS011;4988;49.238;6.698;2023-04-25T08:31:43;14.50;;;8.43;;
9898;SDS011;4988;49.238;6.698;2023-04-25T08:34:08;14.87;;;8.33;;
9898;SDS011;4988;49.238;6.698;2023-04-25T08:36:34;13.63;;;7.80;;
9898;SDS011;4988;49.238;6.698;2023-04-25T08:38:59;14.63;;;8.27;;
9898;SDS011;4988;49.238;6.698;2023-04-25T08:41:25;13.23;;;8.13;;
9898;SDS011;4988;49.238;6.698;2023-04-25T08:43:51;14.57;;;8.80;;
9898;SDS011;4988;49.238;6.698;2023-04-25T08:46:20;13.53;;;9.10;;
9898;SDS011;4988;49.238;6.698;2023-04-25T08:48:46;14.90;;;8.67;;
9898;SDS011;4988;49.238;6.698;2023-04-25T08:51:21;13.40;;;8.40;;
9898;SDS011;4988;49.238;6.698;2023-04-25T08:53:50;12.33;;;7.67;;
9898;SDS011;4988;49.238;6.698;2023-04-25T08:56:17;14.97;;;8.17;;
9898;SDS011;4988;49.238;6.698;2023-04-25T08:58:44;14.87;;;8.93;;
9898;SDS011;4988;49.238;6.698;2023-04-25T09:01:11;12.30;;;8.00;;
9898;SDS011;4988;49.238;6.698;2023-04-25T09:03:36;14.27;;;8.40;;
9898;SDS011;4988;49.238;6.698;2023-04-25T09:06:01;14.37;;;8.20;;
9898;SDS011;4988;49.238;6.698;2023-04-25T09:08:27;13.53;;;8.80;;
9898;SDS011;4988;49.238;6.698;2023-04-25T09:10:52;15.33;;;9.17;;
9898;SDS011;4988;49.238;6.698;2023-04-25T09:13:23;16.50;;;8.60;;
9898;SDS011;4988;49.238;6.698;2023-04-25T09:15:52;14.73;;;8.53;;
9898;SDS011;4988;49.238;6.698;2023-04-25T09:18:22;14.43;;;8.60;;
9898;SDS011;4988;49.238;6.698;2023-04-25T09:21:05;15.43;;;9.03;;
9898;SDS011;4988;49.238;6.698;2023-04-25T09:23:31;14.03;;;9.20;;
9898;SDS011;4988;49.238;6.698;2023-04-25T09:26:10;16.17;;;9.43;;
9898;SDS011;4988;49.238;6.698;2023-04-25T09:28:40;14.00;;;8.60;;
9898;SDS011;4988;49.238;6.698;2023-04-25T09:31:05;16.43;;;8.10;;
9898;SDS011;4988;49.238;6.698;2023-04-25T09:33:31;15.57;;;9.10;;
9898;SDS011;4988;49.238;6.698;2023-04-25T09:36:02;15.53;;;8.97;;
9898;SDS011;4988;49.238;6.698;2023-04-25T09:38:29;10.67;;;7.30;;
9898;SDS011;4988;49.238;6.698;2023-04-25T09:40:56;12.60;;;6.87;;
9898;SDS011;4988;49.238;6.698;2023-04-25T09:43:22;8.63;;;6.00;;
9898;SDS011;4988;49.238;6.698;2023-04-25T09:45:49;10.50;;;6.60;;
9898;SDS011;4988;49.238;6.698;2023-04-25T09:48:18;10.93;;;6.87;;
9898;SDS011;4988;49.238;6.698;2023-04-25T09:50:45;10.77;;;6.80;;
9898;SDS011;4988;49.238;6.698;2023-04-25T09:53:28;11.20;;;7.77;;
9898;SDS011;4988;49.238;6.698;2023-04-25T09:55:55;14.33;;;8.23;;
9898;SDS011;4988;49.238;6.698;2023-04-25T09:58:24;15.83;;;8.70;;
9898;SDS011;4988;49.238;6.698;2023-04-25T10:00:51;16.40;;;8.90;;
9898;SDS011;4988;49.238;6.698;2023-04-25T10:03:17;14.93;;;8.70;;
9898;SDS011;4988;49.238;6.698;2023-04-25T10:05:44;15.50;;;9.53;;
9898;SDS011;4988;49.238;6.698;2023-04-25T10:08:14;20.60;;;10.10;;
9898;SDS011;4988;49.238;6.698;2023-04-25T10:10:41;16.80;;;9.60;;
9898;SDS011;4988;49.238;6.698;2023-04-25T10:13:07;19.67;;;10.17;;
9898;SDS011;4988;49.238;6.698;2023-04-25T10:15:34;19.90;;;10.33;;
9898;SDS011;4988;49.238;6.698;2023-04-25T10:18:01;16.63;;;8.70;;
9898;SDS011;4988;49.238;6.698;2023-04-25T10:20:27;19.20;;;9.73;;
9898;SDS011;4988;49.238;6.698;2023-04-25T10:22:54;17.63;;;9.60;;
9898;SDS011;4988;49.238;6.698;2023-04-25T10:25:23;18.13;;;9.60;;
9898;SDS011;4988;49.238;6.698;2023-04-25T10:27:52;17.63;;;10.20;;
9898;SDS011;4988;49.238;6.698;2023-04-25T10:30:18;14.23;;;8.57;;
9898;SDS011;4988;49.238;6.698;2023-04-25T10:32:44;15.33;;;8.53;;
9898;SDS011;4988;49.238;6.698;2023-04-25T10:38:05;14.77;;;8.37;;
9898;SDS011;4988;49.238;6.698;2023-04-25T10:40:34;13.53;;;7.77;;
9898;SDS011;4988;49.238;6.698;2023-04-25T10:43:34;12.30;;;7.70;;
9898;SDS011;4988;49.238;6.698;2023-04-25T10:45:57;13.30;;;8.07;;
9898;SDS011;4988;49.238;6.698;2023-04-25T10:48:28;13.83;;;7.50;;
9898;SDS011;4988;49.238;6.698;2023-04-25T10:51:08;12.77;;;7.60;;
9898;SDS011;4988;49.238;6.698;2023-04-25T10:53:40;11.57;;;6.63;;
9898;SDS011;4988;49.238;6.698;2023-04-25T11:01:43;13.73;;;8.00;;
9898;SDS011;4988;49.238;6.698;2023-04-25T11:04:19;14.47;;;7.97;;
9898;SDS011;4988;49.238;6.698;2023-04-25T11:06:59;13.93;;;7.53;;
9898;SDS011;4988;49.238;6.698;2023-04-25T11:09:35;14.50;;;7.30;;
9898;SDS011;4988;49.238;6.698;2023-04-25T11:12:02;11.60;;;6.67;;
9898;SDS011;4988;49.238;6.698;2023-04-25T11:14:28;13.70;;;7.00;;
9898;SDS011;4988;49.238;6.698;2023-04-25T11:16:54;11.13;;;6.83;;
9898;SDS011;4988;49.238;6.698;2023-04-25T11:19:23;12.00;;;6.90;;
9898;SDS011;4988;49.238;6.698;2023-04-25T11:21:50;12.40;;;6.73;;
9898;SDS011;4988;49.238;6.698;2023-04-25T11:24:16;13.57;;;6.93;;
9898;SDS011;4988;49.238;6.698;2023-04-25T11:26:42;13.27;;;6.70;;
9898;SDS011;4988;49.238;6.698;2023-04-25T11:29:09;11.53;;;6.30;;
9898;SDS011;4988;49.238;6.698;2023-04-25T11:31:34;11.33;;;6.57;;
9898;SDS011;4988;49.238;6.698;2023-04-25T11:34:00;10.47;;;6.60;;
9898;SDS011;4988;49.238;6.698;2023-04-25T11:36:25;10.43;;;6.23;;
9898;SDS011;4988;49.238;6.698;2023-04-25T11:38:51;11.70;;;6.60;;
9898;SDS011;4988;49.238;6.698;2023-04-25T11:41:18;11.60;;;6.43;;
9898;SDS011;4988;49.238;6.698;2023-04-25T11:43:44;10.30;;;6.17;;
9898;SDS011;4988;49.238;6.698;2023-04-25T11:46:09;11.10;;;6.77;;
9898;SDS011;4988;49.238;6.698;2023-04-25T11:48:41;12.90;;;6.50;;
9898;SDS011;4988;49.238;6.698;2023-04-25T11:51:07;12.33;;;6.53;;
9898;SDS011;4988;49.238;6.698;2023-04-25T11:53:33;14.97;;;6.63;;
9898;SDS011;4988;49.238;6.698;2023-04-25T11:55:59;11.87;;;6.70;;
9898;SDS011;4988;49.238;6.698;2023-04-25T11:58:27;16.37;;;7.40;;
9898;SDS011;4988;49.238;6.698;2023-04-25T12:00:53;12.40;;;7.00;;
9898;SDS011;4988;49.238;6.698;2023-04-25T12:03:19;11.10;;;6.23;;
9898;SDS011;4988;49.238;6.698;2023-04-25T12:05:45;12.50;;;7.00;;
9898;SDS011;4988;49.238;6.698;2023-04-25T12:08:14;14.50;;;7.30;;
9898;SDS011;4988;49.238;6.698;2023-04-25T12:10:43;12.47;;;6.70;;
9898;SDS011;4988;49.238;6.698;2023-04-25T12:13:23;10.93;;;6.97;;
9898;SDS011;4988;49.238;6.698;2023-04-25T12:15:50;11.77;;;6.83;;
9898;SDS011;4988;49.238;6.698;2023-04-25T12:18:20;10.53;;;6.67;;
9898;SDS011;4988;49.238;6.698;2023-04-25T12:20:48;11.90;;;7.07;;
9898;SDS011;4988;49.238;6.698;2023-04-25T12:23:13;10.97;;;6.63;;
9898;SDS011;4988;49.238;6.698;2023-04-25T12:25:42;9.57;;;6.60;;
9898;SDS011;4988;49.238;6.698;2023-04-25T12:31:00;11.93;;;6.50;;
9898;SDS011;4988;49.238;6.698;2023-04-25T12:33:28;14.90;;;6.90;;
9898;SDS011;4988;49.238;6.698;2023-04-25T12:35:55;9.27;;;5.97;;
9898;SDS011;4988;49.238;6.698;2023-04-25T12:38:28;12.10;;;5.90;;
9898;SDS011;4988;49.238;6.698;2023-04-25T12:40:55;13.47;;;6.47;;
9898;SDS011;4988;49.238;6.698;2023-04-25T12:43:21;11.93;;;6.47;;
9898;SDS011;4988;49.238;6.698;2023-04-25T12:45:48;11.33;;;5.83;;
9898;SDS011;4988;49.238;6.698;2023-04-25T12:48:17;7.80;;;5.60;;
9898;SDS011;4988;49.238;6.698;2023-04-25T12:50:43;13.83;;;5.60;;
9898;SDS011;4988;49.238;6.698;2023-04-25T12:53:09;10.80;;;5.87;;
9898;SDS011;4988;49.238;6.698;2023-04-25T12:55:36;12.07;;;6.90;;
9898;SDS011;4988;49.238;6.698;2023-04-25T12:58:01;11.57;;;6.83;;
9898;SDS011;4988;49.238;6.698;2023-04-25T13:00:28;10.10;;;5.97;;
9898;SDS011;4988;49.238;6.698;2023-04-25T13:02:53;9.20;;;5.23;;
9898;SDS011;4988;49.238;6.698;2023-04-25T13:05:19;14.37;;;6.43;;
9898;SDS011;4988;49.238;6.698;2023-04-25T13:07:44;9.03;;;5.43;;
9898;SDS011;4988;49.238;6.698;2023-04-25T13:10:10;9.57;;;5.80;;
9898;SDS011;4988;49.238;6.698;2023-04-25T13:12:36;9.80;;;5.43;;
9898;SDS011;4988;49.238;6.698;2023-04-25T13:15:01;8.63;;;5.60;;
9898;SDS011;4988;49.238;6.698;2023-04-25T13:17:27;8.80;;;5.30;;
9898;SDS011;4988;49.238;6.698;2023-04-25T13:19:52;11.33;;;5.63;;
9898;SDS011;4988;49.238;6.698;2023-04-25T13:22:17;7.57;;;4.73;;
9898;SDS011;4988;49.238;6.698;2023-04-25T13:24:45;8.03;;;4.50;;
9898;SDS011;4988;49.238;6.698;2023-04-25T13:27:10;10.10;;;4.97;;
9898;SDS011;4988;49.238;6.698;2023-04-25T13:29:36;8.50;;;4.40;;
9898;SDS011;4988;49.238;6.698;2023-04-25T13:32:03;8.43;;;4.37;;
9898;SDS011;4988;49.238;6.698;2023-04-25T13:34:28;7.07;;;4.00;;
9898;SDS011;4988;49.238;6.698;2023-04-25T13:36:54;6.70;;;4.53;;
9898;SDS011;4988;49.238;6.698;2023-04-25T13:39:20;6.57;;;4.10;;
9898;SDS011;4988;49.238;6.698;2023-04-25T13:41:45;8.13;;;4.03;;
9898;SDS011;4988;49.238;6.698;2023-04-25T13:44:11;8.17;;;3.87;;
9898;SDS011;4988;49.238;6.698;2023-04-25T13:46:36;7.87;;;4.43;;
9898;SDS011;4988;49.238;6.698;2023-04-25T13:49:02;8.53;;;4.00;;
9898;SDS011;4988;49.238;6.698;2023-04-25T13:51:28;5.97;;;3.50;;
9898;SDS011;4988;49.238;6.698;2023-04-25T13:53:53;6.80;;;3.83;;
9898;SDS011;4988;49.238;6.698;2023-04-25T13:56:18;9.40;;;3.70;;
9898;SDS011;4988;49.238;6.698;2023-04-25T13:58:44;6.10;;;3.50;;
9898;SDS011;4988;49.238;6.698;2023-04-25T14:01:10;6.67;;;3.83;;
9898;SDS011;4988;49.238;6.698;2023-04-25T14:03:37;6.90;;;3.90;;
9898;SDS011;4988;49.238;6.698;2023-04-25T14:06:02;6.07;;;4.07;;
9898;SDS011;4988;49.238;6.698;2023-04-25T14:08:29;7.77;;;3.83;;
9898;SDS011;4988;49.238;6.698;2023-04-25T14:10:54;8.73;;;4.10;;
9898;SDS011;4988;49.238;6.698;2023-04-25T14:13:20;7.67;;;4.30;;
9898;SDS011;4988;49.238;6.698;2023-04-25T14:15:45;6.50;;;4.13;;
9898;SDS011;4988;49.238;6.698;2023-04-25T14:18:11;6.47;;;3.70;;
9898;SDS011;4988;49.238;6.698;2023-04-25T14:20:36;5.93;;;3.67;;
9898;SDS011;4988;49.238;6.698;2023-04-25T14:23:01;7.23;;;3.80;;
9898;SDS011;4988;49.238;6.698;2023-04-25T14:25:27;8.17;;;3.97;;
9898;SDS011;4988;49.238;6.698;2023-04-25T14:27:54;5.70;;;4.13;;
9898;SDS011;4988;49.238;6.698;2023-04-25T14:30:20;8.17;;;4.00;;
9898;SDS011;4988;49.238;6.698;2023-04-25T14:32:46;8.30;;;4.10;;
9898;SDS011;4988;49.238;6.698;2023-04-25T14:35:11;8.00;;;3.90;;
9898;SDS011;4988;49.238;6.698;2023-04-25T14:37:37;6.73;;;4.07;;
9898;SDS011;4988;49.238;6.698;2023-04-25T14:40:02;7.03;;;3.87;;
9898;SDS011;4988;49.238;6.698;2023-04-25T14:42:28;7.30;;;4.00;;
9898;SDS011;4988;49.238;6.698;2023-04-25T14:44:53;6.53;;;3.70;;
9898;SDS011;4988;49.238;6.698;2023-04-25T14:47:19;7.37;;;3.80;;
9898;SDS011;4988;49.238;6.698;2023-04-25T14:49:44;8.43;;;4.20;;
9898;SDS011;4988;49.238;6.698;2023-04-25T14:52:16;5.73;;;3.97;;
9898;SDS011;4988;49.238;6.698;2023-04-25T14:54:41;6.53;;;4.07;;
9898;SDS011;4988;49.238;6.698;2023-04-25T14:57:06;7.33;;;4.20;;
9898;SDS011;4988;49.238;6.698;2023-04-25T14:59:32;6.63;;;3.83;;
9898;SDS011;4988;49.238;6.698;2023-04-25T15:01:57;6.73;;;4.10;;
9898;SDS011;4988;49.238;6.698;2023-04-25T15:04:23;7.97;;;4.03;;
9898;SDS011;4988;49.238;6.698;2023-04-25T15:06:48;7.23;;;3.80;;